Terminal Aerodrome Forecast
Issued by NWS

Home | Current Version | Previous Version | Text Only | Print | Product List | Glossary On
Versions: 1 2 3 4 5 6 7 8 9 10 11 12 13 14 15 16 17 18 19 20 21 22 23 24
000
FTUS44 KLIX 010500
TAFHUM
TAF
KHUM 010521Z 0106/0206 VRB03KT 6SM BR FEW020
     FM010800 VRB03KT 3SM BR FEW017 SCT100
     FM011400 11005KT P6SM SCT030 BKN080 PROB30 0115/0121 3SM TSRA
      BKN030CB=

USA.gov is the U.S. government's official web portal to all federal, state and local government web resources and services.